Time;durP1;ratioP1;P1;durP2;ratioP2;P2;SDS_P1;SDS_P2;PMS_P1;PMS_P2;Temp;Humidity;BMP_temperature;BMP_pressure;BME280_temperature;BME280_humidity;BME280_pressure;Samples;Min_cycle;Max_cycle;Signal;HPM_P1;HPM_P2
2023/01/22 00:01:11;;;;;;;;;;;20.10;42.50;;;;;;6035877;29;19986;-59
2023/01/22 00:04:14;;;;;;;;;;;19.60;42.40;;;;;;6035510;29;19963;-59
2023/01/22 00:07:16;;;;;;;;;;;19.80;42.60;;;;;;6035465;29;20346;-59
2023/01/22 00:10:17;;;;;;;;;;;20.30;43.50;;;;;;6035115;29;19924;-59
2023/01/22 00:13:19;;;;;;;;;;;19.50;42.40;;;;;;6035414;29;20401;-59
2023/01/22 00:16:20;;;;;;;;;;;19.60;42.50;;;;;;6035318;29;19924;-59
2023/01/22 00:19:22;;;;;;;;;;;19.80;42.70;;;;;;6034971;29;19929;-59
2023/01/22 00:22:23;;;;;;;;;;;19.40;42.50;;;;;;6034877;29;19928;-59
2023/01/22 00:25:25;;;;;;;;;;;19.60;42.50;;;;;;6035496;29;20385;-59
2023/01/22 00:28:26;;;;;;;;;;;19.50;42.60;;;;;;6035045;29;19962;-59
2023/01/22 00:31:27;;;;;;;;;;;19.50;42.50;;;;;;6034799;29;20289;-59
2023/01/22 00:34:29;;;;;;;;;;;19.90;42.80;;;;;;6035294;29;20428;-59
2023/01/22 00:37:31;;;;;;;;;;;19.50;42.70;;;;;;6034931;29;19959;-59
2023/01/22 00:40:33;;;;;;;;;;;20.00;42.80;;;;;;6034896;29;19980;-59
2023/01/22 00:43:37;;;;;;;;;;;19.60;42.60;;;;;;6034970;29;19924;-59
2023/01/22 00:46:38;;;;;;;;;;;19.50;42.40;;;;;;6018447;29;19924;-59
2023/01/22 00:49:40;;;;;;;;;;;19.60;42.70;;;;;;6034389;29;19931;-59
2023/01/22 00:52:41;;;;;;;;;;;19.50;42.50;;;;;;6034374;29;19924;-59
2023/01/22 00:55:49;;;;;;;;;;;19.40;42.50;;;;;;6034698;29;20322;-60
2023/01/22 00:58:50;;;;;;;;;;;19.50;42.30;;;;;;6034589;29;19924;-59
2023/01/22 01:01:52;;;;;;;;;;;19.60;42.70;;;;;;6033359;29;19947;-59
2023/01/22 01:04:55;;;;;;;;;;;20.20;42.90;;;;;;6034614;29;19924;-59
2023/01/22 01:07:57;;;;;;;;;;;19.60;42.60;;;;;;6034315;29;19930;-59
2023/01/22 01:11:00;;;;;;;;;;;19.50;42.60;;;;;;6034778;29;19947;-59
2023/01/22 01:14:01;;;;;;;;;;;19.80;42.50;;;;;;6019267;29;19924;-58
2023/01/22 01:17:02;;;;;;;;;;;19.50;42.60;;;;;;6035190;29;19924;-59
2023/01/22 01:20:04;;;;;;;;;;;19.30;42.50;;;;;;6034647;29;19924;-59
2023/01/22 01:23:06;;;;;;;;;;;19.30;42.40;;;;;;6034612;29;19924;-59
2023/01/22 01:26:09;;;;;;;;;;;19.50;42.50;;;;;;6035353;29;19924;-59
2023/01/22 01:29:12;;;;;;;;;;;19.90;42.70;;;;;;6019533;29;19924;-59
2023/01/22 01:32:14;;;;;;;;;;;19.60;42.50;;;;;;6035690;29;20020;-59
2023/01/22 01:35:15;;;;;;;;;;;19.70;42.70;;;;;;6035308;29;20355;-59
2023/01/22 01:38:17;;;;;;;;;;;19.50;42.40;;;;;;6035418;29;20304;-59
2023/01/22 01:41:19;;;;;;;;;;;19.40;42.50;;;;;;6035045;29;19924;-59
2023/01/22 01:44:21;;;;;;;;;;;19.90;42.40;;;;;;6018186;29;19924;-59
2023/01/22 01:47:29;;;;;;;;;;;19.30;42.30;;;;;;6034109;29;19942;-59
2023/01/22 01:50:31;;;;;;;;;;;19.80;42.40;;;;;;6034440;29;19964;-59
2023/01/22 01:53:32;;;;;;;;;;;19.70;42.50;;;;;;6034732;29;20377;-59
2023/01/22 01:56:36;;;;;;;;;;;19.50;42.40;;;;;;6034344;29;19932;-59
2023/01/22 01:59:38;;;;;;;;;;;20.00;42.60;;;;;;6035518;29;20327;-59
2023/01/22 02:02:40;;;;;;;;;;;19.80;42.50;;;;;;6034789;29;19972;-59
2023/01/22 02:05:42;;;;;;;;;;;19.30;42.30;;;;;;6035489;29;20377;-59
2023/01/22 02:08:44;;;;;;;;;;;19.40;42.50;;;;;;6034351;29;19924;-58
2023/01/22 02:11:46;;;;;;;;;;;19.40;42.30;;;;;;6016803;29;20469;-58
2023/01/22 02:14:47;;;;;;;;;;;19.80;42.60;;;;;;6035857;29;19931;-58
2023/01/22 02:17:49;;;;;;;;;;;19.50;41.50;;;;;;6052549;23;20231;-58
2023/01/22 02:20:51;;;;;;;;;;;19.70;42.30;;;;;;6039806;29;20406;-60
2023/01/22 02:23:52;;;;;;;;;;;19.30;42.00;;;;;;6039140;29;19928;-60
2023/01/22 02:26:55;;;;;;;;;;;19.40;42.20;;;;;;6039835;29;20411;-60
2023/01/22 02:29:56;;;;;;;;;;;20.20;42.50;;;;;;6039484;29;19931;-60
2023/01/22 02:32:57;;;;;;;;;;;19.30;42.20;;;;;;6039008;29;19924;-60
2023/01/22 02:35:59;;;;;;;;;;;19.50;42.30;;;;;;6039333;29;19967;-60
2023/01/22 02:39:01;;;;;;;;;;;19.20;42.10;;;;;;6040321;29;19924;-60
2023/01/22 02:42:03;;;;;;;;;;;19.70;42.20;;;;;;6022362;29;20380;-60
2023/01/22 02:45:06;;;;;;;;;;;19.40;42.10;;;;;;6040098;29;19928;-60
2023/01/22 02:48:07;;;;;;;;;;;19.40;42.00;;;;;;6039412;29;20395;-60
2023/01/22 02:51:10;;;;;;;;;;;19.30;42.20;;;;;;6040342;29;19928;-60
2023/01/22 02:54:11;;;;;;;;;;;19.30;42.00;;;;;;6041893;29;19924;-60
2023/01/22 02:57:13;;;;;;;;;;;19.50;42.10;;;;;;6039496;29;20320;-60
2023/01/22 03:00:14;;;;;;;;;;;20.10;42.40;;;;;;6038387;29;20006;-61
2023/01/22 03:03:17;;;;;;;;;;;19.60;42.20;;;;;;6038341;29;19975;-61
2023/01/22 03:06:20;;;;;;;;;;;19.30;42.00;;;;;;6042633;29;19924;-60
2023/01/22 03:09:21;;;;;;;;;;;19.30;42.10;;;;;;6042137;29;20407;-61
2023/01/22 03:12:24;;;;;;;;;;;19.20;42.00;;;;;;6041724;29;19924;-60
2023/01/22 03:21:57;;;;;;;;;;;19.50;42.10;;;;;;6045752;29;19924;-60
2023/01/22 03:25:00;;;;;;;;;;;19.40;42.20;;;;;;6050471;29;19931;-60
2023/01/22 03:28:17;;;;;;;;;;;19.20;42.00;;;;;;6053690;29;19952;-60
2023/01/22 03:31:24;;;;;;;;;;;20.10;42.40;;;;;;6050190;29;19935;-60
2023/01/22 03:34:26;;;;;;;;;;;19.40;42.10;;;;;;6050957;29;19975;-60
2023/01/22 03:37:30;;;;;;;;;;;19.80;42.40;;;;;;6050371;29;19924;-60
2023/01/22 03:40:32;;;;;;;;;;;19.60;42.10;;;;;;6049405;29;19928;-60
2023/01/22 03:43:34;;;;;;;;;;;19.30;42.10;;;;;;6049645;29;19924;-60
2023/01/22 03:46:39;;;;;;;;;;;19.60;42.10;;;;;;6049596;29;19924;-60
2023/01/22 03:49:41;;;;;;;;;;;19.60;42.00;;;;;;6050040;29;20363;-60
2023/01/22 03:52:44;;;;;;;;;;;19.80;42.20;;;;;;6050672;29;19991;-60
2023/01/22 03:55:46;;;;;;;;;;;19.30;42.00;;;;;;6050721;29;20437;-60
2023/01/22 03:58:48;;;;;;;;;;;19.50;42.20;;;;;;6051357;29;19930;-60
2023/01/22 04:01:51;;;;;;;;;;;20.20;42.30;;;;;;6050468;29;19948;-60
2023/01/22 04:04:53;;;;;;;;;;;19.50;42.10;;;;;;6050219;29;19924;-60
2023/01/22 04:07:55;;;;;;;;;;;19.30;42.00;;;;;;6050423;29;20420;-60
2023/01/22 04:11:00;;;;;;;;;;;19.40;42.10;;;;;;6050198;29;19930;-60
2023/01/22 04:14:02;;;;;;;;;;;19.60;42.00;;;;;;6034246;29;19935;-60
2023/01/22 04:17:06;;;;;;;;;;;19.60;42.30;;;;;;6049802;29;19967;-60
2023/01/22 04:20:24;;;;;;;;;;;19.40;42.10;;;;;;6049498;29;19931;-60
2023/01/22 04:23:42;;;;;;;;;;;19.40;42.10;;;;;;6049767;29;19998;-59
2023/01/22 04:26:45;;;;;;;;;;;19.40;42.00;;;;;;6048229;29;19996;-60
2023/01/22 04:29:48;;;;;;;;;;;19.60;42.00;;;;;;6044321;29;20368;-60
2023/01/22 04:32:50;;;;;;;;;;;19.80;42.20;;;;;;6047522;29;19948;-59
2023/01/22 04:36:05;;;;;;;;;;;19.50;42.20;;;;;;6046789;29;19928;-60
2023/01/22 04:39:07;;;;;;;;;;;19.30;41.90;;;;;;6047045;29;20329;-60
2023/01/22 04:42:09;;;;;;;;;;;19.50;42.10;;;;;;6046248;29;20019;-60
2023/01/22 04:45:11;;;;;;;;;;;19.40;41.70;;;;;;6046880;29;19930;-60
2023/01/22 04:48:12;;;;;;;;;;;19.50;42.00;;;;;;6030844;29;20392;-60
2023/01/22 04:51:16;;;;;;;;;;;19.30;41.90;;;;;;6047019;29;19924;-60
2023/01/22 04:54:19;;;;;;;;;;;19.40;42.10;;;;;;6047661;29;19931;-60
2023/01/22 04:57:21;;;;;;;;;;;19.60;42.10;;;;;;6047552;29;19924;-60
2023/01/22 05:00:25;;;;;;;;;;;19.80;42.20;;;;;;6046788;29;19928;-60
2023/01/22 05:03:26;;;;;;;;;;;20.10;42.20;;;;;;6047264;29;19931;-60
2023/01/22 05:06:28;;;;;;;;;;;19.30;42.00;;;;;;6047261;29;19924;-60
2023/01/22 05:09:30;;;;;;;;;;;19.50;41.80;;;;;;6047100;29;19968;-60
2023/01/22 05:12:34;;;;;;;;;;;19.30;41.90;;;;;;6046825;29;20376;-60
2023/01/22 05:15:36;;;;;;;;;;;19.30;41.80;;;;;;6047137;29;19924;-60
2023/01/22 05:18:42;;;;;;;;;;;19.30;41.90;;;;;;6046442;29;20443;-60
2023/01/22 05:21:43;;;;;;;;;;;19.40;42.00;;;;;;6047225;29;19924;-60
2023/01/22 05:24:47;;;;;;;;;;;19.70;42.10;;;;;;6046419;29;19932;-60
2023/01/22 05:27:49;;;;;;;;;;;19.50;41.90;;;;;;6047255;29;19962;-60
2023/01/22 05:31:03;;;;;;;;;;;19.30;41.80;;;;;;6046578;29;20304;-60
2023/01/22 05:34:08;;;;;;;;;;;20.10;42.20;;;;;;6046921;29;19930;-60
2023/01/22 05:37:09;;;;;;;;;;;19.50;41.90;;;;;;6047913;29;19990;-60
2023/01/22 05:40:12;;;;;;;;;;;19.50;41.80;;;;;;6045764;29;19987;-60
2023/01/22 05:43:13;;;;;;;;;;;19.30;41.60;;;;;;6046485;29;19924;-60
2023/01/22 05:46:19;;;;;;;;;;;19.40;41.80;;;;;;6047044;29;19924;-60
2023/01/22 05:49:41;;;;;;;;;;;19.70;42.00;;;;;;6049340;29;19974;-60
2023/01/22 05:52:45;;;;;;;;;;;19.30;41.70;;;;;;6049637;29;19928;-60
2023/01/22 05:55:48;;;;;;;;;;;19.30;41.80;;;;;;6050807;29;19924;-60
2023/01/22 05:58:50;;;;;;;;;;;19.30;41.70;;;;;;6049852;29;20014;-60
2023/01/22 06:01:52;;;;;;;;;;;19.40;41.70;;;;;;6050443;29;19924;-60
2023/01/22 06:04:54;;;;;;;;;;;20.20;42.10;;;;;;6049438;29;19995;-61
2023/01/22 06:07:59;;;;;;;;;;;19.30;41.80;;;;;;6051059;29;20492;-60
2023/01/22 06:11:05;;;;;;;;;;;19.60;41.80;;;;;;6049976;29;19996;-60
2023/01/22 06:14:07;;;;;;;;;;;19.70;41.90;;;;;;6051125;29;19924;-60
2023/01/22 06:17:08;;;;;;;;;;;19.30;41.80;;;;;;6050227;29;19991;-60
2023/01/22 06:20:12;;;;;;;;;;;19.60;41.80;;;;;;6049500;29;19927;-60
2023/01/22 06:23:14;;;;;;;;;;;19.30;41.70;;;;;;6048223;29;19931;-60
2023/01/22 06:26:16;;;;;;;;;;;19.40;41.60;;;;;;6032835;29;19963;-60
2023/01/22 06:29:18;;;;;;;;;;;19.80;41.90;;;;;;6047961;29;19924;-60
2023/01/22 06:32:20;;;;;;;;;;;19.30;41.50;;;;;;6049460;29;19991;-60
2023/01/22 06:35:21;;;;;;;;;;;19.40;41.70;;;;;;6050371;29;19948;-60
2023/01/22 06:38:24;;;;;;;;;;;19.30;41.50;;;;;;6050628;29;19931;-60
2023/01/22 06:41:26;;;;;;;;;;;19.80;42.00;;;;;;6050530;29;19924;-60
2023/01/22 06:44:32;;;;;;;;;;;19.50;41.60;;;;;;6050082;29;20273;-60
2023/01/22 06:47:33;;;;;;;;;;;20.20;42.10;;;;;;6050254;29;20383;-60
2023/01/22 06:50:36;;;;;;;;;;;19.30;41.80;;;;;;6051402;29;19949;-60
2023/01/22 06:53:38;;;;;;;;;;;19.30;41.60;;;;;;6050647;29;19924;-60
2023/01/22 06:56:40;;;;;;;;;;;19.40;41.70;;;;;;6049921;29;20296;-60
2023/01/22 06:59:41;;;;;;;;;;;19.40;41.60;;;;;;6049801;29;20027;-60
2023/01/22 07:02:42;;;;;;;;;;;19.90;41.80;;;;;;6049907;29;19939;-60
2023/01/22 07:05:44;;;;;;;;;;;19.40;41.60;;;;;;6050995;29;19931;-60
2023/01/22 07:08:45;;;;;;;;;;;19.80;41.90;;;;;;6051020;29;19924;-60
2023/01/22 07:11:47;;;;;;;;;;;19.80;41.80;;;;;;6050762;29;19924;-60
2023/01/22 07:14:48;;;;;;;;;;;19.50;41.60;;;;;;6050256;29;20396;-59
2023/01/22 07:17:50;;;;;;;;;;;19.40;41.50;;;;;;6050803;29;19931;-60
2023/01/22 07:20:52;;;;;;;;;;;19.30;41.30;;;;;;6034951;29;20401;-60
2023/01/22 07:23:54;;;;;;;;;;;19.50;41.50;;;;;;6052238;29;19924;-60
2023/01/22 07:26:55;;;;;;;;;;;19.80;41.70;;;;;;6051262;29;19924;-60
2023/01/22 07:29:57;;;;;;;;;;;19.90;41.40;;;;;;6050966;29;19931;-60
2023/01/22 07:32:59;;;;;;;;;;;19.80;41.50;;;;;;6051030;29;19924;-59
2023/01/22 07:36:00;;;;;;;;;;;19.50;41.20;;;;;;6051067;29;19924;-60
2023/01/22 07:39:02;;;;;;;;;;;19.40;41.30;;;;;;6050828;29;19924;-60
2023/01/22 07:42:04;;;;;;;;;;;19.90;41.40;;;;;;6051350;29;19959;-60
2023/01/22 07:45:06;;;;;;;;;;;19.40;41.20;;;;;;6050810;29;19935;-60
2023/01/22 07:48:09;;;;;;;;;;;19.50;41.20;;;;;;6050700;29;19924;-60
2023/01/22 07:51:11;;;;;;;;;;;19.90;41.30;;;;;;6049910;29;19924;-60
2023/01/22 07:54:12;;;;;;;;;;;20.10;41.60;;;;;;6049344;29;19931;-60
2023/01/22 07:57:15;;;;;;;;;;;19.50;41.20;;;;;;6049456;29;19924;-60
2023/01/22 08:00:17;;;;;;;;;;;19.50;41.20;;;;;;6049642;29;20384;-60
2023/01/22 08:03:19;;;;;;;;;;;19.60;41.10;;;;;;6048692;29;19924;-60
2023/01/22 08:06:20;;;;;;;;;;;19.90;41.30;;;;;;6049765;29;19952;-60
2023/01/22 08:09:24;;;;;;;;;;;19.50;41.20;;;;;;6047835;29;19924;-60
2023/01/22 08:12:26;;;;;;;;;;;19.50;40.90;;;;;;6048766;29;19963;-60
2023/01/22 08:15:27;;;;;;;;;;;19.70;41.20;;;;;;6048903;29;19924;-60
2023/01/22 08:18:28;;;;;;;;;;;20.30;41.40;;;;;;6047710;29;19924;-60
2023/01/22 08:21:31;;;;;;;;;;;19.60;41.00;;;;;;6047763;29;19998;-60
2023/01/22 08:24:33;;;;;;;;;;;19.90;41.20;;;;;;6047253;29;19931;-60
2023/01/22 08:27:35;;;;;;;;;;;20.00;41.00;;;;;;6048407;29;20399;-60
2023/01/22 08:30:36;;;;;;;;;;;20.40;41.40;;;;;;6048616;29;19924;-60
2023/01/22 08:33:47;;;;;;;;;;;19.50;41.00;;;;;;6048052;29;19924;-60
2023/01/22 08:36:48;;;;;;;;;;;20.10;41.20;;;;;;6048674;29;19948;-60
2023/01/22 08:39:49;;;;;;;;;;;19.50;40.90;;;;;;6048259;29;19923;-60
2023/01/22 08:42:51;;;;;;;;;;;20.00;41.10;;;;;;6048502;29;19932;-60
2023/01/22 08:45:52;;;;;;;;;;;20.00;41.10;;;;;;6031807;29;19934;-60
2023/01/22 08:48:54;;;;;;;;;;;19.60;41.00;;;;;;6048326;29;19966;-60
2023/01/22 08:51:55;;;;;;;;;;;19.50;40.70;;;;;;6047632;29;19947;-60
2023/01/22 08:54:57;;;;;;;;;;;20.20;41.10;;;;;;6046819;29;19924;-60
2023/01/22 08:57:58;;;;;;;;;;;19.50;40.90;;;;;;6047971;29;19924;-60
2023/01/22 09:01:00;;;;;;;;;;;19.70;40.90;;;;;;6047220;29;19980;-60
2023/01/22 09:04:04;;;;;;;;;;;20.10;40.90;;;;;;6047589;29;19931;-60
2023/01/22 09:07:05;;;;;;;;;;;20.40;41.00;;;;;;6030993;29;20285;-60
2023/01/22 09:10:09;;;;;;;;;;;19.60;40.80;;;;;;6047851;29;19940;-60
2023/01/22 09:13:11;;;;;;;;;;;19.60;40.60;;;;;;6046529;29;19968;-60
2023/01/22 09:16:12;;;;;;;;;;;19.70;40.70;;;;;;6046501;29;19949;-60
2023/01/22 09:19:14;;;;;;;;;;;20.20;41.10;;;;;;6046449;29;20011;-60
2023/01/22 09:22:15;;;;;;;;;;;19.70;40.30;;;;;;6046597;29;19924;-60
2023/01/22 09:25:16;;;;;;;;;;;19.80;40.80;;;;;;6045697;29;19931;-61
2023/01/22 09:28:18;;;;;;;;;;;20.00;40.80;;;;;;6045950;29;20364;-60
2023/01/22 09:31:19;;;;;;;;;;;20.40;41.00;;;;;;6045775;29;19924;-60
2023/01/22 09:34:21;;;;;;;;;;;20.20;40.80;;;;;;6045784;29;20030;-59
2023/01/22 09:37:24;;;;;;;;;;;20.20;40.90;;;;;;6045707;29;19971;-60
2023/01/22 09:40:26;;;;;;;;;;;20.10;40.70;;;;;;6045766;29;20075;-60
2023/01/22 09:43:30;;;;;;;;;;;20.50;40.90;;;;;;6046187;29;20369;-60
2023/01/22 09:46:35;;;;;;;;;;;19.70;40.40;;;;;;6043574;29;19931;-61
2023/01/22 09:49:38;;;;;;;;;;;20.60;40.80;;;;;;6041665;29;19947;-60
2023/01/22 09:52:39;;;;;;;;;;;19.70;40.30;;;;;;6042548;29;19997;-60
2023/01/22 09:55:43;;;;;;;;;;;20.80;41.10;;;;;;6041827;29;19931;-60
2023/01/22 09:58:48;;;;;;;;;;;19.80;40.30;;;;;;6041595;29;20376;-60
2023/01/22 10:01:51;;;;;;;;;;;20.30;40.80;;;;;;6041607;29;20391;-60
2023/01/22 10:04:55;;;;;;;;;;;19.70;40.40;;;;;;6040428;29;20380;-61
2023/01/22 10:07:59;;;;;;;;;;;20.70;40.80;;;;;;6023947;29;19995;-60
2023/01/22 10:11:02;;;;;;;;;;;20.00;40.50;;;;;;6023595;29;19924;-60
2023/01/22 10:14:06;;;;;;;;;;;20.50;40.70;;;;;;6026148;29;20334;-60
2023/01/22 10:17:12;;;;;;;;;;;19.90;40.30;;;;;;6025526;29;19924;-60
2023/01/22 10:20:15;;;;;;;;;;;20.50;40.70;;;;;;6041669;29;19935;-60
2023/01/22 10:23:18;;;;;;;;;;;19.80;40.30;;;;;;6041734;29;19989;-60
2023/01/22 10:26:23;;;;;;;;;;;20.40;40.60;;;;;;6025462;29;20380;-60
2023/01/22 10:29:29;;;;;;;;;;;20.30;40.50;;;;;;6025906;29;19931;-60
2023/01/22 10:32:31;;;;;;;;;;;20.20;40.60;;;;;;6041903;29;19924;-60
2023/01/22 10:35:41;;;;;;;;;;;20.00;40.30;;;;;;6043175;29;19924;-60
2023/01/22 10:38:42;;;;;;;;;;;20.40;40.50;;;;;;6028259;29;19930;-60
2023/01/22 10:41:45;;;;;;;;;;;20.10;40.20;;;;;;6045821;29;19924;-60
2023/01/22 10:44:48;;;;;;;;;;;20.00;40.30;;;;;;6046551;29;20377;-60
2023/01/22 10:47:49;;;;;;;;;;;19.80;40.30;;;;;;6029185;29;19924;-60
2023/01/22 10:50:59;;;;;;;;;;;20.40;40.60;;;;;;6045996;29;20337;-60
2023/01/22 10:54:00;;;;;;;;;;;20.20;40.30;;;;;;6044989;29;19924;-60
2023/01/22 10:57:03;;;;;;;;;;;20.80;40.80;;;;;;6044861;29;19924;-60
2023/01/22 11:00:18;;;;;;;;;;;19.80;40.10;;;;;;6044521;29;19924;-60
2023/01/22 11:03:21;;;;;;;;;;;20.80;40.60;;;;;;6029553;29;19992;-60
2023/01/22 11:06:25;;;;;;;;;;;19.90;40.20;;;;;;6028828;29;20031;-60
2023/01/22 11:09:30;;;;;;;;;;;20.30;40.30;;;;;;6044963;29;19941;-60
2023/01/22 11:12:33;;;;;;;;;;;20.10;40.20;;;;;;6045021;29;19931;-60
2023/01/22 11:15:39;;;;;;;;;;;20.10;40.20;;;;;;6045118;29;19924;-59
2023/01/22 11:18:42;;;;;;;;;;;19.80;40.10;;;;;;6044318;29;20418;-60
2023/01/22 11:21:45;;;;;;;;;;;20.60;40.30;;;;;;6044858;29;20304;-60
2023/01/22 11:24:47;;;;;;;;;;;19.90;40.10;;;;;;6045002;29;19959;-60
2023/01/22 11:27:54;;;;;;;;;;;20.00;40.20;;;;;;6029198;29;19924;-60
2023/01/22 11:31:02;;;;;;;;;;;19.90;40.00;;;;;;6045306;29;19950;-60
2023/01/22 11:34:09;;;;;;;;;;;20.40;40.30;;;;;;6031750;29;19924;-60
2023/01/22 11:37:12;;;;;;;;;;;20.20;40.00;;;;;;6050039;29;19928;-60
2023/01/22 11:40:17;;;;;;;;;;;20.40;40.20;;;;;;6049697;29;19983;-60
2023/01/22 11:43:25;;;;;;;;;;;19.90;40.00;;;;;;6033858;29;19928;-60
2023/01/22 11:46:34;;;;;;;;;;;20.70;40.40;;;;;;6050094;29;19924;-60
2023/01/22 11:49:46;;;;;;;;;;;20.00;40.00;;;;;;6049107;29;19924;-60
2023/01/22 11:52:52;;;;;;;;;;;20.40;40.30;;;;;;6049178;29;19931;-60
2023/01/22 11:56:00;;;;;;;;;;;20.00;40.00;;;;;;6048947;29;19932;-60
2023/01/22 11:59:03;;;;;;;;;;;20.80;40.40;;;;;;6049436;29;19928;-60
2023/01/22 12:02:13;;;;;;;;;;;19.90;40.00;;;;;;6047962;29;20346;-60
2023/01/22 12:05:17;;;;;;;;;;;20.00;40.20;;;;;;6049063;29;19924;-60
2023/01/22 12:08:26;;;;;;;;;;;20.20;40.10;;;;;;6048610;29;19924;-61
2023/01/22 12:11:32;;;;;;;;;;;20.80;40.40;;;;;;6048121;29;19952;-60
2023/01/22 12:14:38;;;;;;;;;;;20.10;40.10;;;;;;6049834;29;19924;-60
2023/01/22 12:17:44;;;;;;;;;;;20.20;40.10;;;;;;6049109;29;20333;-60
2023/01/22 12:21:04;;;;;;;;;;;20.10;40.00;;;;;;6049842;29;20300;-60
2023/01/22 12:24:08;;;;;;;;;;;20.80;40.40;;;;;;6050336;29;19924;-60
2023/01/22 12:27:21;;;;;;;;;;;20.20;40.10;;;;;;6049596;29;20312;-60
2023/01/22 12:30:25;;;;;;;;;;;20.60;40.30;;;;;;6035571;29;20376;-60
2023/01/22 12:33:28;;;;;;;;;;;20.00;40.00;;;;;;6050151;29;19924;-60
2023/01/22 12:36:31;;;;;;;;;;;21.00;40.50;;;;;;6050028;29;19931;-60
2023/01/22 12:39:34;;;;;;;;;;;20.20;40.10;;;;;;6050618;29;19924;-60
2023/01/22 12:42:38;;;;;;;;;;;20.10;40.10;;;;;;6049912;29;19924;-60
2023/01/22 12:45:51;;;;;;;;;;;20.20;40.00;;;;;;6050827;29;19931;-59
2023/01/22 12:48:56;;;;;;;;;;;20.70;40.10;;;;;;6052499;29;20434;-60
2023/01/22 12:51:58;;;;;;;;;;;20.20;40.00;;;;;;6052337;29;20262;-60
2023/01/22 12:55:00;;;;;;;;;;;20.20;40.00;;;;;;6052104;29;19928;-60
2023/01/22 12:58:03;;;;;;;;;;;20.60;40.20;;;;;;6050824;29;19948;-60
2023/01/22 13:01:05;;;;;;;;;;;20.80;40.40;;;;;;6052000;29;20391;-60
2023/01/22 13:04:10;;;;;;;;;;;20.10;39.80;;;;;;6035380;29;20012;-60
2023/01/22 13:07:19;;;;;;;;;;;20.10;39.90;;;;;;6050706;29;19924;-60
2023/01/22 13:10:23;;;;;;;;;;;20.30;40.00;;;;;;6033598;29;19931;-60
2023/01/22 13:13:28;;;;;;;;;;;20.90;40.40;;;;;;6050198;29;19924;-60
2023/01/22 13:16:31;;;;;;;;;;;20.40;40.00;;;;;;6050420;29;19928;-60
2023/01/22 13:19:37;;;;;;;;;;;21.10;40.40;;;;;;6051508;29;19991;-60
2023/01/22 13:22:41;;;;;;;;;;;20.10;39.80;;;;;;6034753;29;19955;-60
2023/01/22 13:25:42;;;;;;;;;;;20.90;40.40;;;;;;6050695;29;20309;-60
2023/01/22 13:28:49;;;;;;;;;;;20.30;39.90;;;;;;6050834;29;19924;-60
2023/01/22 13:31:51;;;;;;;;;;;20.60;40.20;;;;;;6033323;29;19924;-60
2023/01/22 13:35:01;;;;;;;;;;;20.40;39.90;;;;;;6049697;29;19924;-60
2023/01/22 13:38:02;;;;;;;;;;;20.70;40.10;;;;;;6033930;29;19923;-60
2023/01/22 13:41:06;;;;;;;;;;;20.10;39.80;;;;;;6050375;29;20345;-60
2023/01/22 13:44:14;;;;;;;;;;;21.00;40.40;;;;;;6050261;29;20337;-60
2023/01/22 13:47:24;;;;;;;;;;;20.20;39.80;;;;;;6049941;29;19932;-60
2023/01/22 13:50:27;;;;;;;;;;;21.20;40.40;;;;;;6048921;29;19931;-60
2023/01/22 13:53:30;;;;;;;;;;;20.30;40.10;;;;;;6033689;29;20357;-60
2023/01/22 13:56:31;;;;;;;;;;;21.00;40.40;;;;;;6049694;29;19976;-60
2023/01/22 13:59:34;;;;;;;;;;;20.60;40.10;;;;;;6050823;29;19931;-60
2023/01/22 14:02:35;;;;;;;;;;;20.70;40.20;;;;;;6051033;29;19924;-61
2023/01/22 14:05:37;;;;;;;;;;;20.40;40.10;;;;;;6048944;29;19976;-60
2023/01/22 14:08:47;;;;;;;;;;;20.90;40.40;;;;;;6048490;29;19952;-60
2023/01/22 14:11:48;;;;;;;;;;;20.10;39.80;;;;;;6051718;29;19924;-60
2023/01/22 14:14:51;;;;;;;;;;;20.80;40.50;;;;;;6051823;29;19952;-60
2023/01/22 14:17:52;;;;;;;;;;;20.50;40.00;;;;;;6051902;29;19924;-58
2023/01/22 14:20:54;;;;;;;;;;;20.80;40.40;;;;;;6036473;29;19928;-60
2023/01/22 14:23:55;;;;;;;;;;;20.30;40.10;;;;;;6053420;29;20300;-60
2023/01/22 14:26:57;;;;;;;;;;;21.00;40.50;;;;;;6052949;29;20011;-60
2023/01/22 14:29:58;;;;;;;;;;;20.40;40.10;;;;;;6052240;29;19924;-60
2023/01/22 14:32:59;;;;;;;;;;;20.20;40.00;;;;;;6051775;29;19931;-60
2023/01/22 14:36:01;;;;;;;;;;;20.20;39.90;;;;;;6050870;29;20377;-60
2023/01/22 14:39:03;;;;;;;;;;;21.30;40.60;;;;;;6052435;29;19924;-61
2023/01/22 14:42:07;;;;;;;;;;;20.50;39.60;;;;;;6051014;29;19924;-60
2023/01/22 14:45:10;;;;;;;;;;;21.10;40.40;;;;;;6051639;29;19924;-60
2023/01/22 14:48:12;;;;;;;;;;;20.20;39.90;;;;;;6050080;29;19924;-60
2023/01/22 14:51:14;;;;;;;;;;;20.70;40.10;;;;;;6050346;29;19928;-60
2023/01/22 14:54:15;;;;;;;;;;;20.20;40.00;;;;;;6050479;29;19953;-60
2023/01/22 14:57:16;;;;;;;;;;;20.70;40.30;;;;;;6050437;29;19939;-60
2023/01/22 15:00:18;;;;;;;;;;;20.20;39.80;;;;;;6050162;29;19924;-60
2023/01/22 15:03:20;;;;;;;;;;;20.80;40.30;;;;;;6050041;29;19924;-60
2023/01/22 15:06:22;;;;;;;;;;;20.60;40.00;;;;;;6050039;29;20377;-60
2023/01/22 15:09:24;;;;;;;;;;;21.10;40.40;;;;;;6050687;29;19928;-60
2023/01/22 15:12:25;;;;;;;;;;;20.70;40.20;;;;;;6051111;29;19924;-60
2023/01/22 15:15:27;;;;;;;;;;;21.10;40.50;;;;;;6052536;29;19973;-60
2023/01/22 15:18:28;;;;;;;;;;;20.40;39.90;;;;;;6052670;29;19924;-60
2023/01/22 15:21:30;;;;;;;;;;;20.80;39.90;;;;;;6052269;29;19927;-60
2023/01/22 15:24:31;;;;;;;;;;;20.20;40.10;;;;;;6052539;29;19931;-60
2023/01/22 15:27:32;;;;;;;;;;;21.30;40.60;;;;;;6053282;29;19924;-60
2023/01/22 15:30:34;;;;;;;;;;;20.50;40.00;;;;;;6051641;29;19928;-60
2023/01/22 15:33:36;;;;;;;;;;;20.80;40.50;;;;;;6052589;29;19930;-60
2023/01/22 15:36:38;;;;;;;;;;;20.40;40.00;;;;;;6052430;29;20005;-60
2023/01/22 15:39:40;;;;;;;;;;;20.80;40.40;;;;;;6052540;29;19924;-60
2023/01/22 15:42:41;;;;;;;;;;;20.10;40.00;;;;;;6051836;29;19963;-60
2023/01/22 15:45:43;;;;;;;;;;;21.10;40.50;;;;;;6052446;29;19924;-60
2023/01/22 15:48:44;;;;;;;;;;;20.60;40.30;;;;;;6051825;29;19935;-60
2023/01/22 15:51:46;;;;;;;;;;;20.90;40.50;;;;;;6052391;29;20018;-60
2023/01/22 15:54:47;;;;;;;;;;;20.70;40.40;;;;;;6052852;29;19924;-60
2023/01/22 15:57:48;;;;;;;;;;;20.70;40.50;;;;;;6052527;29;19924;-60
2023/01/22 16:00:50;;;;;;;;;;;20.20;40.00;;;;;;6051808;29;19931;-60
2023/01/22 16:03:52;;;;;;;;;;;21.00;40.70;;;;;;6052105;29;19998;-60
2023/01/22 16:06:54;;;;;;;;;;;20.20;40.10;;;;;;6036555;29;19931;-60
2023/01/22 16:09:55;;;;;;;;;;;20.60;39.80;;;;;;6050538;29;19948;-60
2023/01/22 16:12:56;;;;;;;;;;;20.20;40.10;;;;;;6052054;29;19924;-60
2023/01/22 16:15:58;;;;;;;;;;;20.70;40.40;;;;;;6051120;29;19924;-60
2023/01/22 16:19:00;;;;;;;;;;;20.40;40.20;;;;;;6050728;29;19924;-60
2023/01/22 16:22:02;;;;;;;;;;;21.00;40.60;;;;;;6050573;29;19973;-61
2023/01/22 16:25:04;;;;;;;;;;;20.20;40.30;;;;;;6051133;29;19958;-60
2023/01/22 16:28:05;;;;;;;;;;;20.90;40.60;;;;;;6050342;29;19924;-60
2023/01/22 16:31:08;;;;;;;;;;;20.20;40.10;;;;;;6051252;29;19928;-60
2023/01/22 16:34:11;;;;;;;;;;;20.90;40.50;;;;;;6050016;29;19924;-60
2023/01/22 16:37:12;;;;;;;;;;;19.90;40.10;;;;;;6049834;29;19977;-60
2023/01/22 16:40:14;;;;;;;;;;;20.00;40.30;;;;;;6049505;29;19953;-60
2023/01/22 16:43:15;;;;;;;;;;;20.20;40.00;;;;;;6049560;29;19961;-60
2023/01/22 16:46:18;;;;;;;;;;;21.00;41.50;;;;;;6048374;29;19924;-60
2023/01/22 16:49:21;;;;;;;;;;;20.50;40.50;;;;;;6032804;29;19924;-61
2023/01/22 16:52:23;;;;;;;;;;;20.80;40.50;;;;;;6049467;29;19986;-60
2023/01/22 16:55:24;;;;;;;;;;;20.20;40.50;;;;;;6049455;29;19928;-60
2023/01/22 16:58:25;;;;;;;;;;;20.90;40.90;;;;;;6049083;29;20405;-60
2023/01/22 17:01:27;;;;;;;;;;;20.10;40.30;;;;;;6049794;29;19924;-60
2023/01/22 17:04:29;;;;;;;;;;;21.00;40.70;;;;;;6049976;29;19931;-60
2023/01/22 17:07:31;;;;;;;;;;;20.60;40.50;;;;;;6044901;29;20014;-60
2023/01/22 17:10:36;;;;;;;;;;;20.40;41.20;;;;;;6040571;29;19931;-60
2023/01/22 17:13:37;;;;;;;;;;;20.30;40.30;;;;;;6040988;29;20330;-60
2023/01/22 17:16:38;;;;;;;;;;;20.90;41.00;;;;;;6040503;29;19924;-60
2023/01/22 17:19:40;;;;;;;;;;;20.20;40.30;;;;;;6040944;29;19977;-60
2023/01/22 17:22:41;;;;;;;;;;;20.40;40.70;;;;;;6041109;29;20353;-60
2023/01/22 17:25:43;;;;;;;;;;;20.00;40.50;;;;;;6040897;29;20395;-60
2023/01/22 17:28:44;;;;;;;;;;;21.00;41.20;;;;;;6040888;29;19928;-60
2023/01/22 17:31:47;;;;;;;;;;;20.00;40.50;;;;;;6023837;29;19932;-60
2023/01/22 17:34:48;;;;;;;;;;;20.80;41.10;;;;;;6040470;29;19928;-60
2023/01/22 17:37:50;;;;;;;;;;;20.40;40.60;;;;;;6040574;29;19924;-60
2023/01/22 17:40:52;;;;;;;;;;;20.40;40.10;;;;;;6040712;29;19924;-60
2023/01/22 17:43:54;;;;;;;;;;;20.20;40.50;;;;;;6040758;29;20288;-60
2023/01/22 17:46:58;;;;;;;;;;;20.90;41.20;;;;;;6043447;29;20372;-60
2023/01/22 17:49:59;;;;;;;;;;;20.20;40.80;;;;;;6045424;29;19931;-60